sensor_id;sensor_type;location;lat;lon;timestamp;pressure;altitude;pressure_sealevel;temperature;humidity
26087;BME280;13851;43.434;28.338;2023-02-18T00:01:02;100394.97;;;7.27;100.00
26087;BME280;13851;43.434;28.338;2023-02-18T00:03:32;100302.88;;;6.74;100.00
26087;BME280;13851;43.434;28.338;2023-02-18T00:05:58;100332.94;;;7.02;100.00
26087;BME280;13851;43.434;28.338;2023-02-18T00:08:23;100345.38;;;7.14;100.00
26087;BME280;13851;43.434;28.338;2023-02-18T00:10:49;100396.16;;;7.52;100.00
26087;BME280;13851;43.434;28.338;2023-02-18T00:13:15;100375.91;;;7.55;100.00
26087;BME280;13851;43.434;28.338;2023-02-18T00:15:41;100289.16;;;7.13;100.00
26087;BME280;13851;43.434;28.338;2023-02-18T00:18:07;100337.13;;;7.61;100.00
26087;BME280;13851;43.434;28.338;2023-02-18T00:20:32;100405.75;;;7.56;100.00
26087;BME280;13851;43.434;28.338;2023-02-18T00:23:00;100371.22;;;7.75;100.00
26087;BME280;13851;43.434;28.338;2023-02-18T00:25:26;100316.69;;;7.47;100.00
26087;BME280;13851;43.434;28.338;2023-02-18T00:27:52;100420.31;;;7.75;100.00
26087;BME280;13851;43.434;28.338;2023-02-18T00:30:17;100273.53;;;7.43;100.00
26087;BME280;13851;43.434;28.338;2023-02-18T00:32:43;100069.84;;;6.27;100.00
26087;BME280;13851;43.434;28.338;2023-02-18T00:35:09;100304.06;;;7.92;100.00
26087;BME280;13851;43.434;28.338;2023-02-18T00:37:34;100281.47;;;7.81;100.00
26087;BME280;13851;43.434;28.338;2023-02-18T00:40:00;100189.34;;;7.40;100.00
26087;BME280;13851;43.434;28.338;2023-02-18T00:42:25;99925.97;;;5.68;100.00
26087;BME280;13851;43.434;28.338;2023-02-18T00:44:51;100365.97;;;7.64;100.00
26087;BME280;13851;43.434;28.338;2023-02-18T00:47:16;100313.69;;;7.41;100.00
26087;BME280;13851;43.434;28.338;2023-02-18T00:49:42;100272.22;;;7.19;100.00
26087;BME280;13851;43.434;28.338;2023-02-18T00:52:07;100225.47;;;6.87;100.00
26087;BME280;13851;43.434;28.338;2023-02-18T00:54:33;100279.84;;;7.06;100.00
26087;BME280;13851;43.434;28.338;2023-02-18T00:56:58;99948.56;;;5.12;100.00
26087;BME280;13851;43.434;28.338;2023-02-18T00:59:24;100291.47;;;7.08;100.00
26087;BME280;13851;43.434;28.338;2023-02-18T01:01:49;100283.03;;;7.39;100.00
26087;BME280;13851;43.434;28.338;2023-02-18T01:04:15;100263.78;;;7.40;100.00
26087;BME280;13851;43.434;28.338;2023-02-18T01:06:41;100262.97;;;7.30;100.00
26087;BME280;13851;43.434;28.338;2023-02-18T01:09:06;99834.16;;;4.88;100.00
26087;BME280;13851;43.434;28.338;2023-02-18T01:11:32;100267.78;;;7.46;100.00
26087;BME280;13851;43.434;28.338;2023-02-18T01:13:58;100250.09;;;7.32;100.00
26087;BME280;13851;43.434;28.338;2023-02-18T01:16:23;100255.78;;;7.39;100.00
26087;BME280;13851;43.434;28.338;2023-02-18T01:18:49;100220.09;;;7.32;100.00
26087;BME280;13851;43.434;28.338;2023-02-18T01:21:15;100218.19;;;7.42;100.00
26087;BME280;13851;43.434;28.338;2023-02-18T01:23:41;100237.03;;;7.71;100.00
26087;BME280;13851;43.434;28.338;2023-02-18T01:26:07;100259.75;;;7.90;100.00
26087;BME280;13851;43.434;28.338;2023-02-18T01:28:34;100264.88;;;7.93;100.00
26087;BME280;13851;43.434;28.338;2023-02-18T01:31:05;100136.22;;;7.26;100.00
26087;BME280;13851;43.434;28.338;2023-02-18T01:33:31;99908.91;;;5.39;100.00
26087;BME280;13851;43.434;28.338;2023-02-18T01:35:57;99894.91;;;5.71;100.00
26087;BME280;13851;43.434;28.338;2023-02-18T01:38:23;100233.63;;;7.87;100.00
26087;BME280;13851;43.434;28.338;2023-02-18T01:40:50;100135.38;;;7.25;100.00
26087;BME280;13851;43.434;28.338;2023-02-18T01:43:17;100270.50;;;8.09;100.00
26087;BME280;13851;43.434;28.338;2023-02-18T01:50:55;99965.19;;;6.31;100.00
26087;BME280;13851;43.434;28.338;2023-02-18T01:53:26;100259.66;;;8.17;100.00
26087;BME280;13851;43.434;28.338;2023-02-18T01:55:54;99852.38;;;5.80;100.00
26087;BME280;13851;43.434;28.338;2023-02-18T01:58:20;100210.00;;;7.96;100.00
26087;BME280;13851;43.434;28.338;2023-02-18T02:00:46;100237.44;;;8.12;100.00
26087;BME280;13851;43.434;28.338;2023-02-18T02:03:11;100249.50;;;8.27;100.00
26087;BME280;13851;43.434;28.338;2023-02-18T02:05:37;99791.59;;;5.53;100.00
26087;BME280;13851;43.434;28.338;2023-02-18T02:08:03;100245.31;;;8.15;100.00
26087;BME280;13851;43.434;28.338;2023-02-18T02:13:47;100311.59;;;8.25;100.00
26087;BME280;13851;43.434;28.338;2023-02-18T02:16:28;100260.91;;;8.41;100.00
26087;BME280;13851;43.434;28.338;2023-02-18T02:27:32;100249.19;;;8.13;100.00
26087;BME280;13851;43.434;28.338;2023-02-18T02:30:46;100252.81;;;7.95;100.00
26087;BME280;13851;43.434;28.338;2023-02-18T02:33:41;100252.94;;;7.76;100.00
26087;BME280;13851;43.434;28.338;2023-02-18T02:36:41;100265.50;;;7.87;100.00
26087;BME280;13851;43.434;28.338;2023-02-18T02:39:11;100246.31;;;7.96;100.00
26087;BME280;13851;43.434;28.338;2023-02-18T02:42:07;100214.69;;;7.86;100.00
26087;BME280;13851;43.434;28.338;2023-02-18T02:44:32;100245.56;;;8.04;100.00
26087;BME280;13851;43.434;28.338;2023-02-18T02:47:13;100247.31;;;8.13;100.00
26087;BME280;13851;43.434;28.338;2023-02-18T02:50:17;100249.34;;;8.29;100.00
26087;BME280;13851;43.434;28.338;2023-02-18T02:52:48;100197.13;;;8.06;100.00
26087;BME280;13851;43.434;28.338;2023-02-18T02:55:14;100236.41;;;8.31;100.00
26087;BME280;13851;43.434;28.338;2023-02-18T02:57:51;100173.22;;;8.00;100.00
26087;BME280;13851;43.434;28.338;2023-02-18T03:20:07;100226.19;;;8.33;100.00
26087;BME280;13851;43.434;28.338;2023-02-18T03:22:45;100160.69;;;7.89;100.00
26087;BME280;13851;43.434;28.338;2023-02-18T03:25:13;100177.75;;;8.09;100.00
26087;BME280;13851;43.434;28.338;2023-02-18T03:27:45;99870.50;;;6.34;100.00
26087;BME280;13851;43.434;28.338;2023-02-18T03:30:22;100204.13;;;8.26;100.00
26087;BME280;13851;43.434;28.338;2023-02-18T03:32:50;100163.22;;;8.08;100.00
26087;BME280;13851;43.434;28.338;2023-02-18T03:35:18;100175.06;;;8.17;100.00
26087;BME280;13851;43.434;28.338;2023-02-18T03:37:51;100187.22;;;8.41;100.00
26087;BME280;13851;43.434;28.338;2023-02-18T03:40:18;100151.41;;;8.26;100.00
26087;BME280;13851;43.434;28.338;2023-02-18T03:42:44;100121.56;;;8.24;100.00
26087;BME280;13851;43.434;28.338;2023-02-18T03:45:10;99801.31;;;6.37;100.00
26087;BME280;13851;43.434;28.338;2023-02-18T03:47:35;100249.47;;;8.63;100.00
26087;BME280;13851;43.434;28.338;2023-02-18T03:50:01;100196.94;;;8.69;100.00
26087;BME280;13851;43.434;28.338;2023-02-18T03:52:26;100200.69;;;8.68;100.00
26087;BME280;13851;43.434;28.338;2023-02-18T03:54:52;100201.78;;;8.83;100.00
26087;BME280;13851;43.434;28.338;2023-02-18T03:57:17;100168.25;;;8.65;100.00
26087;BME280;13851;43.434;28.338;2023-02-18T03:59:43;100194.56;;;8.74;100.00
26087;BME280;13851;43.434;28.338;2023-02-18T04:02:08;100211.06;;;8.65;100.00
26087;BME280;13851;43.434;28.338;2023-02-18T04:04:34;100162.06;;;8.55;100.00
26087;BME280;13851;43.434;28.338;2023-02-18T04:06:59;100155.94;;;8.61;100.00
26087;BME280;13851;43.434;28.338;2023-02-18T04:09:25;100204.94;;;8.97;100.00
26087;BME280;13851;43.434;28.338;2023-02-18T04:11:51;100182.66;;;8.83;100.00
26087;BME280;13851;43.434;28.338;2023-02-18T04:14:16;100210.34;;;8.89;100.00
26087;BME280;13851;43.434;28.338;2023-02-18T04:16:42;100187.47;;;8.81;100.00
26087;BME280;13851;43.434;28.338;2023-02-18T04:19:08;100118.03;;;8.06;100.00
26087;BME280;13851;43.434;28.338;2023-02-18T04:21:33;100143.13;;;8.62;100.00
26087;BME280;13851;43.434;28.338;2023-02-18T04:23:59;100097.88;;;8.33;100.00
26087;BME280;13851;43.434;28.338;2023-02-18T04:26:25;100191.91;;;8.82;100.00
26087;BME280;13851;43.434;28.338;2023-02-18T04:28:51;100102.13;;;8.27;100.00
26087;BME280;13851;43.434;28.338;2023-02-18T04:31:16;100175.63;;;8.73;100.00
26087;BME280;13851;43.434;28.338;2023-02-18T04:33:42;99984.00;;;7.31;100.00
26087;BME280;13851;43.434;28.338;2023-02-18T04:36:08;100147.09;;;8.67;100.00
26087;BME280;13851;43.434;28.338;2023-02-18T04:38:34;100163.50;;;8.23;100.00
26087;BME280;13851;43.434;28.338;2023-02-18T04:40:59;100164.16;;;8.69;100.00
26087;BME280;13851;43.434;28.338;2023-02-18T04:43:25;100055.63;;;8.11;100.00
26087;BME280;13851;43.434;28.338;2023-02-18T04:45:50;100134.47;;;8.66;100.00
26087;BME280;13851;43.434;28.338;2023-02-18T04:48:16;100103.72;;;8.64;100.00
26087;BME280;13851;43.434;28.338;2023-02-18T04:50:43;100146.84;;;9.37;100.00
26087;BME280;13851;43.434;28.338;2023-02-18T04:53:09;100028.84;;;8.83;100.00
26087;BME280;13851;43.434;28.338;2023-02-18T04:55:34;100171.81;;;9.42;100.00
26087;BME280;13851;43.434;28.338;2023-02-18T04:58:00;100172.84;;;9.49;100.00
26087;BME280;13851;43.434;28.338;2023-02-18T05:00:25;100116.78;;;9.53;100.00
26087;BME280;13851;43.434;28.338;2023-02-18T05:02:52;100143.63;;;9.74;100.00
26087;BME280;13851;43.434;28.338;2023-02-18T05:05:18;100048.22;;;9.30;100.00
26087;BME280;13851;43.434;28.338;2023-02-18T05:07:43;100141.94;;;9.73;100.00
26087;BME280;13851;43.434;28.338;2023-02-18T05:10:10;100139.19;;;9.98;100.00
26087;BME280;13851;43.434;28.338;2023-02-18T05:12:38;100197.63;;;9.56;100.00
26087;BME280;13851;43.434;28.338;2023-02-18T05:15:04;100172.09;;;8.80;100.00
26087;BME280;13851;43.434;28.338;2023-02-18T05:17:30;100135.47;;;8.65;100.00
26087;BME280;13851;43.434;28.338;2023-02-18T05:19:56;100172.22;;;8.45;100.00
26087;BME280;13851;43.434;28.338;2023-02-18T05:22:21;99724.50;;;5.99;100.00
26087;BME280;13851;43.434;28.338;2023-02-18T05:24:47;99882.72;;;6.66;100.00
26087;BME280;13851;43.434;28.338;2023-02-18T05:27:12;100115.47;;;8.30;100.00
26087;BME280;13851;43.434;28.338;2023-02-18T05:29:38;100154.53;;;8.57;100.00
26087;BME280;13851;43.434;28.338;2023-02-18T05:32:03;99798.34;;;6.48;100.00
26087;BME280;13851;43.434;28.338;2023-02-18T05:34:29;100142.22;;;8.53;100.00
26087;BME280;13851;43.434;28.338;2023-02-18T05:36:54;100152.41;;;8.43;100.00
26087;BME280;13851;43.434;28.338;2023-02-18T05:39:20;99809.94;;;6.50;100.00
26087;BME280;13851;43.434;28.338;2023-02-18T05:41:46;99742.66;;;6.16;100.00
26087;BME280;13851;43.434;28.338;2023-02-18T05:44:11;100211.06;;;8.65;100.00
26087;BME280;13851;43.434;28.338;2023-02-18T05:47:00;100106.25;;;8.31;100.00
26087;BME280;13851;43.434;28.338;2023-02-18T05:49:28;100154.00;;;8.53;100.00
26087;BME280;13851;43.434;28.338;2023-02-18T05:51:54;100155.22;;;8.59;100.00
26087;BME280;13851;43.434;28.338;2023-02-18T05:54:20;100148.13;;;8.66;100.00
26087;BME280;13851;43.434;28.338;2023-02-18T05:56:45;100116.53;;;8.38;100.00
26087;BME280;13851;43.434;28.338;2023-02-18T05:59:12;100142.34;;;8.77;100.00
26087;BME280;13851;43.434;28.338;2023-02-18T06:01:37;100131.06;;;8.72;100.00
26087;BME280;13851;43.434;28.338;2023-02-18T06:04:03;100010.63;;;7.81;100.00
26087;BME280;13851;43.434;28.338;2023-02-18T06:06:28;99677.47;;;5.89;100.00
26087;BME280;13851;43.434;28.338;2023-02-18T06:08:54;100134.56;;;8.91;100.00
26087;BME280;13851;43.434;28.338;2023-02-18T06:11:20;100138.03;;;9.09;100.00
26087;BME280;13851;43.434;28.338;2023-02-18T06:13:45;99876.50;;;7.51;100.00
26087;BME280;13851;43.434;28.338;2023-02-18T06:16:11;100139.47;;;9.29;100.00
26087;BME280;13851;43.434;28.338;2023-02-18T06:18:36;100025.44;;;8.81;100.00
26087;BME280;13851;43.434;28.338;2023-02-18T06:21:05;100100.50;;;9.35;100.00
26087;BME280;13851;43.434;28.338;2023-02-18T06:23:34;100144.63;;;9.49;100.00
26087;BME280;13851;43.434;28.338;2023-02-18T06:25:59;100087.69;;;9.28;100.00
26087;BME280;13851;43.434;28.338;2023-02-18T06:28:25;99771.66;;;7.29;100.00
26087;BME280;13851;43.434;28.338;2023-02-18T06:30:50;100097.09;;;9.42;100.00
26087;BME280;13851;43.434;28.338;2023-02-18T06:33:16;100143.13;;;9.87;100.00
26087;BME280;13851;43.434;28.338;2023-02-18T06:35:42;100140.72;;;9.76;100.00
26087;BME280;13851;43.434;28.338;2023-02-18T06:38:16;100147.72;;;9.62;100.00
26087;BME280;13851;43.434;28.338;2023-02-18T06:40:41;100141.84;;;9.24;100.00
26087;BME280;13851;43.434;28.338;2023-02-18T06:43:07;100081.69;;;9.24;100.00
26087;BME280;13851;43.434;28.338;2023-02-18T06:45:32;100127.53;;;9.55;100.00
26087;BME280;13851;43.434;28.338;2023-02-18T06:47:58;100164.97;;;9.54;100.00
26087;BME280;13851;43.434;28.338;2023-02-18T06:50:23;100148.59;;;9.71;100.00
26087;BME280;13851;43.434;28.338;2023-02-18T06:52:49;100149.47;;;9.79;100.00
26087;BME280;13851;43.434;28.338;2023-02-18T06:55:15;100150.81;;;9.75;100.00
26087;BME280;13851;43.434;28.338;2023-02-18T06:57:40;100108.03;;;9.33;100.00
26087;BME280;13851;43.434;28.338;2023-02-18T07:00:07;100096.59;;;9.46;100.00
26087;BME280;13851;43.434;28.338;2023-02-18T07:02:32;100146.38;;;10.15;100.00
26087;BME280;13851;43.434;28.338;2023-02-18T07:04:58;100142.94;;;10.46;100.00
26087;BME280;13851;43.434;28.338;2023-02-18T07:07:24;99775.16;;;8.39;100.00
26087;BME280;13851;43.434;28.338;2023-02-18T07:09:50;100144.34;;;10.89;100.00
26087;BME280;13851;43.434;28.338;2023-02-18T07:12:15;100120.38;;;10.83;100.00
26087;BME280;13851;43.434;28.338;2023-02-18T07:14:41;100106.09;;;10.56;100.00
26087;BME280;13851;43.434;28.338;2023-02-18T07:17:06;100101.34;;;10.18;100.00
26087;BME280;13851;43.434;28.338;2023-02-18T07:19:32;100222.66;;;10.02;100.00
26087;BME280;13851;43.434;28.338;2023-02-18T07:21:57;100130.63;;;9.76;100.00
26087;BME280;13851;43.434;28.338;2023-02-18T07:24:23;100067.69;;;9.19;100.00
26087;BME280;13851;43.434;28.338;2023-02-18T07:26:48;100126.53;;;9.64;100.00
26087;BME280;13851;43.434;28.338;2023-02-18T07:29:14;100141.75;;;9.67;100.00
26087;BME280;13851;43.434;28.338;2023-02-18T07:31:40;100016.06;;;9.00;100.00
26087;BME280;13851;43.434;28.338;2023-02-18T07:34:05;99811.31;;;7.66;100.00
26087;BME280;13851;43.434;28.338;2023-02-18T07:36:31;99864.38;;;8.30;100.00
26087;BME280;13851;43.434;28.338;2023-02-18T07:38:56;100130.81;;;9.99;100.00
26087;BME280;13851;43.434;28.338;2023-02-18T07:41:25;100178.72;;;10.11;100.00
26087;BME280;13851;43.434;28.338;2023-02-18T07:43:50;100049.25;;;9.78;100.00
26087;BME280;13851;43.434;28.338;2023-02-18T07:46:16;100079.81;;;10.06;100.00
26087;BME280;13851;43.434;28.338;2023-02-18T07:48:42;100124.16;;;10.34;100.00
26087;BME280;13851;43.434;28.338;2023-02-18T07:51:09;100119.19;;;10.30;100.00
26087;BME280;13851;43.434;28.338;2023-02-18T07:53:36;100086.19;;;9.99;100.00
26087;BME280;13851;43.434;28.338;2023-02-18T07:56:02;100097.66;;;9.94;100.00
26087;BME280;13851;43.434;28.338;2023-02-18T07:58:31;99997.28;;;9.05;100.00
26087;BME280;13851;43.434;28.338;2023-02-18T08:00:57;100106.00;;;9.52;100.00
26087;BME280;13851;43.434;28.338;2023-02-18T08:03:28;99663.84;;;6.76;100.00
26087;BME280;13851;43.434;28.338;2023-02-18T08:05:55;100125.28;;;9.34;100.00
26087;BME280;13851;43.434;28.338;2023-02-18T08:08:24;100101.19;;;9.29;100.00
26087;BME280;13851;43.434;28.338;2023-02-18T08:10:51;100059.09;;;8.98;100.00
26087;BME280;13851;43.434;28.338;2023-02-18T08:13:20;100076.75;;;9.11;100.00
26087;BME280;13851;43.434;28.338;2023-02-18T08:15:46;100106.94;;;9.02;100.00
26087;BME280;13851;43.434;28.338;2023-02-18T08:18:19;100088.53;;;9.36;100.00
26087;BME280;13851;43.434;28.338;2023-02-18T08:20:46;100093.84;;;9.46;100.00
26087;BME280;13851;43.434;28.338;2023-02-18T08:23:14;100117.25;;;9.41;100.00
26087;BME280;13851;43.434;28.338;2023-02-18T08:25:39;100036.06;;;9.08;100.00
26087;BME280;13851;43.434;28.338;2023-02-18T08:28:05;100086.53;;;9.55;100.00
26087;BME280;13851;43.434;28.338;2023-02-18T08:30:31;100074.22;;;9.67;100.00
26087;BME280;13851;43.434;28.338;2023-02-18T08:32:57;100094.38;;;9.90;100.00
26087;BME280;13851;43.434;28.338;2023-02-18T08:35:22;99680.81;;;7.71;100.00
26087;BME280;13851;43.434;28.338;2023-02-18T08:37:48;100087.38;;;10.29;100.00
26087;BME280;13851;43.434;28.338;2023-02-18T08:40:14;100051.19;;;10.50;100.00
26087;BME280;13851;43.434;28.338;2023-02-18T08:42:40;100067.78;;;10.87;100.00
26087;BME280;13851;43.434;28.338;2023-02-18T08:45:06;99714.16;;;9.04;100.00
26087;BME280;13851;43.434;28.338;2023-02-18T08:47:32;100061.84;;;11.07;100.00
26087;BME280;13851;43.434;28.338;2023-02-18T08:49:57;100070.47;;;11.50;100.00
26087;BME280;13851;43.434;28.338;2023-02-18T08:52:23;100078.31;;;11.76;100.00
26087;BME280;13851;43.434;28.338;2023-02-18T08:54:48;100071.81;;;12.00;100.00
26087;BME280;13851;43.434;28.338;2023-02-18T08:57:14;100079.22;;;12.14;100.00
26087;BME280;13851;43.434;28.338;2023-02-18T08:59:40;100076.78;;;12.34;100.00
26087;BME280;13851;43.434;28.338;2023-02-18T09:02:05;100070.81;;;12.45;100.00
26087;BME280;13851;43.434;28.338;2023-02-18T09:04:31;99999.81;;;12.48;100.00
26087;BME280;13851;43.434;28.338;2023-02-18T09:06:57;99986.63;;;12.73;100.00
26087;BME280;13851;43.434;28.338;2023-02-18T09:09:23;100004.81;;;13.11;100.00
26087;BME280;13851;43.434;28.338;2023-02-18T09:11:48;99697.03;;;11.53;98.09
26087;BME280;13851;43.434;28.338;2023-02-18T09:14:14;99979.44;;;13.51;96.22
26087;BME280;13851;43.434;28.338;2023-02-18T09:16:41;100072.69;;;14.11;92.96
26087;BME280;13851;43.434;28.338;2023-02-18T09:19:07;100009.50;;;14.02;90.12
26087;BME280;13851;43.434;28.338;2023-02-18T09:21:33;100042.56;;;14.37;89.37
26087;BME280;13851;43.434;28.338;2023-02-18T09:23:59;100026.59;;;14.26;88.69
26087;BME280;13851;43.434;28.338;2023-02-18T09:26:25;100003.59;;;14.47;87.25
26087;BME280;13851;43.434;28.338;2023-02-18T09:28:52;99993.38;;;14.34;87.09
26087;BME280;13851;43.434;28.338;2023-02-18T09:31:21;99999.53;;;14.43;87.58
26087;BME280;13851;43.434;28.338;2023-02-18T09:33:57;99998.97;;;14.47;88.16
26087;BME280;13851;43.434;28.338;2023-02-18T09:36:23;100024.09;;;14.66;88.23
26087;BME280;13851;43.434;28.338;2023-02-18T09:38:49;99697.91;;;12.88;87.88
26087;BME280;13851;43.434;28.338;2023-02-18T09:43:46;99995.53;;;14.80;87.31
26087;BME280;13851;43.434;28.338;2023-02-18T09:46:25;99943.69;;;14.55;87.55
26087;BME280;13851;43.434;28.338;2023-02-18T09:48:53;99927.97;;;14.49;87.42
26087;BME280;13851;43.434;28.338;2023-02-18T09:51:19;99991.94;;;14.93;87.00
26087;BME280;13851;43.434;28.338;2023-02-18T09:53:45;99985.41;;;15.00;86.59
26087;BME280;13851;43.434;28.338;2023-02-18T09:56:14;99950.56;;;14.79;84.84
26087;BME280;13851;43.434;28.338;2023-02-18T09:58:42;99936.53;;;14.74;84.23
26087;BME280;13851;43.434;28.338;2023-02-18T10:01:27;99973.72;;;14.98;84.30
26087;BME280;13851;43.434;28.338;2023-02-18T10:04:02;99969.56;;;14.61;84.13
26087;BME280;13851;43.434;28.338;2023-02-18T10:06:33;99938.06;;;14.42;83.69
26087;BME280;13851;43.434;28.338;2023-02-18T10:09:04;99978.59;;;14.96;84.22
26087;BME280;13851;43.434;28.338;2023-02-18T10:11:37;99973.09;;;14.96;84.48
26087;BME280;13851;43.434;28.338;2023-02-18T10:14:11;99951.41;;;14.80;85.02
26087;BME280;13851;43.434;28.338;2023-02-18T10:16:40;99986.66;;;15.04;85.66
26087;BME280;13851;43.434;28.338;2023-02-18T10:21:55;99984.97;;;14.90;86.35
26087;BME280;13851;43.434;28.338;2023-02-18T10:24:28;99976.97;;;15.22;87.54
26087;BME280;13851;43.434;28.338;2023-02-18T10:26:56;99976.53;;;15.12;84.89
26087;BME280;13851;43.434;28.338;2023-02-18T10:29:23;99675.31;;;13.27;85.83
26087;BME280;13851;43.434;28.338;2023-02-18T10:34:40;100005.75;;;14.93;87.55
26087;BME280;13851;43.434;28.338;2023-02-18T10:37:21;99908.09;;;14.74;87.14
26087;BME280;13851;43.434;28.338;2023-02-18T10:40:17;99815.94;;;14.28;85.79
26087;BME280;13851;43.434;28.338;2023-02-18T10:50:59;99967.41;;;15.24;86.27
26087;BME280;13851;43.434;28.338;2023-02-18T10:53:38;99913.69;;;15.00;86.52
26087;BME280;13851;43.434;28.338;2023-02-18T10:56:05;99923.66;;;15.01;85.74
26087;BME280;13851;43.434;28.338;2023-02-18T10:58:42;99884.59;;;14.91;86.85
26087;BME280;13851;43.434;28.338;2023-02-18T11:01:16;99949.56;;;15.14;88.18
26087;BME280;13851;43.434;28.338;2023-02-18T11:03:49;99859.75;;;14.78;88.41
26087;BME280;13851;43.434;28.338;2023-02-18T11:06:40;99937.25;;;15.23;87.83
26087;BME280;13851;43.434;28.338;2023-02-18T11:09:06;99927.91;;;15.24;88.73
26087;BME280;13851;43.434;28.338;2023-02-18T11:11:46;99915.81;;;15.12;88.21
26087;BME280;13851;43.434;28.338;2023-02-18T11:14:15;99906.00;;;14.89;89.14
26087;BME280;13851;43.434;28.338;2023-02-18T11:16:45;99921.56;;;15.10;89.22
26087;BME280;13851;43.434;28.338;2023-02-18T11:19:30;99925.16;;;15.24;88.86
26087;BME280;13851;43.434;28.338;2023-02-18T11:22:07;99908.38;;;15.05;88.13
26087;BME280;13851;43.434;28.338;2023-02-18T11:24:38;99923.06;;;15.26;87.98
26087;BME280;13851;43.434;28.338;2023-02-18T11:27:17;99711.97;;;13.89;88.37
26087;BME280;13851;43.434;28.338;2023-02-18T11:29:49;99925.16;;;15.11;88.95
26087;BME280;13851;43.434;28.338;2023-02-18T11:32:15;99938.34;;;15.15;89.67
26087;BME280;13851;43.434;28.338;2023-02-18T11:34:42;99885.63;;;14.83;90.30
26087;BME280;13851;43.434;28.338;2023-02-18T11:37:10;99883.34;;;15.00;91.42
26087;BME280;13851;43.434;28.338;2023-02-18T11:39:43;99919.22;;;15.27;92.18
26087;BME280;13851;43.434;28.338;2023-02-18T11:42:14;99811.34;;;14.69;92.72
26087;BME280;13851;43.434;28.338;2023-02-18T11:44:55;99892.47;;;15.14;93.94
26087;BME280;13851;43.434;28.338;2023-02-18T11:47:25;99910.09;;;15.33;94.15
26087;BME280;13851;43.434;28.338;2023-02-18T11:50:20;99909.88;;;15.28;93.24
26087;BME280;13851;43.434;28.338;2023-02-18T11:52:48;99903.75;;;15.26;94.81
26087;BME280;13851;43.434;28.338;2023-02-18T11:55:24;99901.38;;;15.29;95.44
26087;BME280;13851;43.434;28.338;2023-02-18T11:58:03;99882.72;;;15.31;95.46
26087;BME280;13851;43.434;28.338;2023-02-18T12:00:48;99896.72;;;15.30;94.95
26087;BME280;13851;43.434;28.338;2023-02-18T12:05:57;99898.41;;;15.18;95.63
26087;BME280;13851;43.434;28.338;2023-02-18T12:08:27;99897.16;;;15.27;95.96
26087;BME280;13851;43.434;28.338;2023-02-18T12:11:03;99916.06;;;15.37;96.68
26087;BME280;13851;43.434;28.338;2023-02-18T12:13:42;99866.38;;;15.10;97.96
26087;BME280;13851;43.434;28.338;2023-02-18T12:22:25;99894.59;;;15.52;97.95
26087;BME280;13851;43.434;28.338;2023-02-18T12:24:57;99913.28;;;15.56;98.01
26087;BME280;13851;43.434;28.338;2023-02-18T12:38:07;99889.50;;;15.62;98.67
26087;BME280;13851;43.434;28.338;2023-02-18T12:41:08;99888.63;;;15.75;99.48
26087;BME280;13851;43.434;28.338;2023-02-18T12:49:02;99888.59;;;15.95;99.25
26087;BME280;13851;43.434;28.338;2023-02-18T13:02:42;99891.75;;;16.05;100.00
26087;BME280;13851;43.434;28.338;2023-02-18T13:07:45;99891.13;;;15.96;100.00
26087;BME280;13851;43.434;28.338;2023-02-18T13:13:18;99847.00;;;15.70;100.00
26087;BME280;13851;43.434;28.338;2023-02-18T13:16:18;99799.59;;;15.79;100.00
26087;BME280;13851;43.434;28.338;2023-02-18T13:21:21;99750.16;;;15.58;100.00
26087;BME280;13851;43.434;28.338;2023-02-18T13:24:03;99841.81;;;16.00;100.00
26087;BME280;13851;43.434;28.338;2023-02-18T13:26:32;99871.34;;;16.13;100.00
26087;BME280;13851;43.434;28.338;2023-02-18T13:37:32;99871.53;;;16.11;100.00
26087;BME280;13851;43.434;28.338;2023-02-18T13:40:01;99872.88;;;15.95;100.00
26087;BME280;13851;43.434;28.338;2023-02-18T13:47:45;99835.66;;;16.04;100.00
26087;BME280;13851;43.434;28.338;2023-02-18T13:50:32;99868.75;;;16.24;100.00
26087;BME280;13851;43.434;28.338;2023-02-18T13:55:53;99507.16;;;14.03;100.00
26087;BME280;13851;43.434;28.338;2023-02-18T13:58:50;99866.91;;;15.98;100.00
26087;BME280;13851;43.434;28.338;2023-02-18T14:01:23;99842.94;;;15.85;100.00
26087;BME280;13851;43.434;28.338;2023-02-18T14:03:55;99811.13;;;15.63;100.00
26087;BME280;13851;43.434;28.338;2023-02-18T14:06:27;99805.16;;;15.59;100.00
26087;BME280;13851;43.434;28.338;2023-02-18T14:22:33;99785.47;;;15.09;100.00
26087;BME280;13851;43.434;28.338;2023-02-18T14:27:34;99859.13;;;15.42;100.00
26087;BME280;13851;43.434;28.338;2023-02-18T14:30:23;99856.59;;;15.47;100.00
26087;BME280;13851;43.434;28.338;2023-02-18T14:32:54;99820.72;;;15.21;100.00
26087;BME280;13851;43.434;28.338;2023-02-18T14:48:53;99868.91;;;15.05;100.00
26087;BME280;13851;43.434;28.338;2023-02-18T14:51:23;99545.53;;;13.11;100.00
26087;BME280;13851;43.434;28.338;2023-02-18T14:53:50;99888.41;;;15.03;100.00
26087;BME280;13851;43.434;28.338;2023-02-18T14:56:18;99856.81;;;15.06;100.00
26087;BME280;13851;43.434;28.338;2023-02-18T14:58:52;99789.09;;;14.70;100.00
26087;BME280;13851;43.434;28.338;2023-02-18T15:01:25;99803.97;;;14.76;100.00
26087;BME280;13851;43.434;28.338;2023-02-18T15:03:53;99835.56;;;14.80;100.00
26087;BME280;13851;43.434;28.338;2023-02-18T15:06:36;99875.88;;;14.94;100.00
26087;BME280;13851;43.434;28.338;2023-02-18T15:09:28;99846.19;;;15.03;100.00
26087;BME280;13851;43.434;28.338;2023-02-18T15:11:55;99515.06;;;13.06;100.00
26087;BME280;13851;43.434;28.338;2023-02-18T15:14:29;99786.53;;;14.69;100.00
26087;BME280;13851;43.434;28.338;2023-02-18T15:16:57;99775.69;;;14.47;100.00